sensor_id;sensor_type;location;lat;lon;timestamp;P1;durP1;ratioP1;P2;durP2;ratioP2
36243;SDS011;22284;49.956;19.816;2023-08-12T00:01:59;14.30;;;7.90;;
36243;SDS011;22284;49.956;19.816;2023-08-12T00:05:01;12.90;;;7.00;;
36243;SDS011;22284;49.956;19.816;2023-08-12T00:08:05;12.80;;;7.10;;
36243;SDS011;22284;49.956;19.816;2023-08-12T00:11:07;11.80;;;6.70;;
36243;SDS011;22284;49.956;19.816;2023-08-12T00:14:09;13.90;;;7.10;;
36243;SDS011;22284;49.956;19.816;2023-08-12T00:17:14;11.30;;;6.60;;
36243;SDS011;22284;49.956;19.816;2023-08-12T00:20:16;11.30;;;6.70;;
36243;SDS011;22284;49.956;19.816;2023-08-12T00:23:18;11.20;;;6.60;;
36243;SDS011;22284;49.956;19.816;2023-08-12T00:26:20;11.60;;;6.70;;
36243;SDS011;22284;49.956;19.816;2023-08-12T00:29:21;11.60;;;6.80;;
36243;SDS011;22284;49.956;19.816;2023-08-12T00:32:23;14.20;;;6.60;;
36243;SDS011;22284;49.956;19.816;2023-08-12T00:35:28;12.00;;;6.70;;
36243;SDS011;22284;49.956;19.816;2023-08-12T00:38:30;12.50;;;7.10;;
36243;SDS011;22284;49.956;19.816;2023-08-12T00:41:32;11.60;;;6.80;;
36243;SDS011;22284;49.956;19.816;2023-08-12T00:44:34;10.70;;;6.60;;
36243;SDS011;22284;49.956;19.816;2023-08-12T00:47:35;11.10;;;6.50;;
36243;SDS011;22284;49.956;19.816;2023-08-12T00:50:38;11.40;;;6.80;;
36243;SDS011;22284;49.956;19.816;2023-08-12T00:53:40;12.80;;;7.10;;
36243;SDS011;22284;49.956;19.816;2023-08-12T00:56:43;13.20;;;7.10;;
36243;SDS011;22284;49.956;19.816;2023-08-12T00:59:45;12.80;;;6.50;;
36243;SDS011;22284;49.956;19.816;2023-08-12T01:02:47;15.20;;;6.90;;
36243;SDS011;22284;49.956;19.816;2023-08-12T01:05:50;11.40;;;6.40;;
36243;SDS011;22284;49.956;19.816;2023-08-12T01:08:52;11.50;;;7.10;;
36243;SDS011;22284;49.956;19.816;2023-08-12T01:11:56;13.20;;;7.70;;
36243;SDS011;22284;49.956;19.816;2023-08-12T01:15:15;14.70;;;7.30;;
36243;SDS011;22284;49.956;19.816;2023-08-12T01:18:19;15.40;;;6.80;;
36243;SDS011;22284;49.956;19.816;2023-08-12T01:21:24;11.20;;;6.80;;
36243;SDS011;22284;49.956;19.816;2023-08-12T01:24:35;11.90;;;6.40;;
36243;SDS011;22284;49.956;19.816;2023-08-12T01:27:38;12.10;;;6.70;;
36243;SDS011;22284;49.956;19.816;2023-08-12T01:30:43;10.30;;;6.10;;
36243;SDS011;22284;49.956;19.816;2023-08-12T01:34:00;10.70;;;6.10;;
36243;SDS011;22284;49.956;19.816;2023-08-12T01:37:24;11.60;;;6.60;;
36243;SDS011;22284;49.956;19.816;2023-08-12T01:40:28;10.30;;;6.50;;
36243;SDS011;22284;49.956;19.816;2023-08-12T01:43:30;11.30;;;6.50;;
36243;SDS011;22284;49.956;19.816;2023-08-12T01:46:34;11.90;;;6.80;;
36243;SDS011;22284;49.956;19.816;2023-08-12T01:49:37;12.60;;;7.70;;
36243;SDS011;22284;49.956;19.816;2023-08-12T01:52:39;14.50;;;7.70;;
36243;SDS011;22284;49.956;19.816;2023-08-12T01:55:44;14.50;;;7.40;;
36243;SDS011;22284;49.956;19.816;2023-08-12T01:58:46;11.40;;;6.90;;
36243;SDS011;22284;49.956;19.816;2023-08-12T02:01:47;9.90;;;6.30;;
36243;SDS011;22284;49.956;19.816;2023-08-12T02:04:52;11.80;;;6.80;;
36243;SDS011;22284;49.956;19.816;2023-08-12T02:08:02;10.50;;;6.10;;
36243;SDS011;22284;49.956;19.816;2023-08-12T02:11:06;10.00;;;6.20;;
36243;SDS011;22284;49.956;19.816;2023-08-12T02:14:08;10.70;;;6.20;;
36243;SDS011;22284;49.956;19.816;2023-08-12T02:17:10;13.40;;;6.70;;
36243;SDS011;22284;49.956;19.816;2023-08-12T02:20:11;9.60;;;5.70;;
36243;SDS011;22284;49.956;19.816;2023-08-12T02:23:13;11.70;;;6.20;;
36243;SDS011;22284;49.956;19.816;2023-08-12T02:26:25;11.80;;;6.20;;
36243;SDS011;22284;49.956;19.816;2023-08-12T02:29:29;12.50;;;6.10;;
36243;SDS011;22284;49.956;19.816;2023-08-12T02:32:34;12.50;;;6.10;;
36243;SDS011;22284;49.956;19.816;2023-08-12T02:35:47;13.20;;;6.00;;
36243;SDS011;22284;49.956;19.816;2023-08-12T02:38:49;15.00;;;7.00;;
36243;SDS011;22284;49.956;19.816;2023-08-12T02:41:53;16.60;;;7.50;;
36243;SDS011;22284;49.956;19.816;2023-08-12T02:44:55;13.40;;;6.40;;
36243;SDS011;22284;49.956;19.816;2023-08-12T02:47:57;11.40;;;5.70;;
36243;SDS011;22284;49.956;19.816;2023-08-12T02:50:59;8.50;;;5.50;;
36243;SDS011;22284;49.956;19.816;2023-08-12T02:54:01;10.40;;;5.60;;
36243;SDS011;22284;49.956;19.816;2023-08-12T02:57:03;8.40;;;5.90;;
36243;SDS011;22284;49.956;19.816;2023-08-12T03:00:08;8.90;;;5.60;;
36243;SDS011;22284;49.956;19.816;2023-08-12T03:03:11;14.60;;;6.20;;
36243;SDS011;22284;49.956;19.816;2023-08-12T03:06:13;9.90;;;5.70;;
36243;SDS011;22284;49.956;19.816;2023-08-12T03:09:24;9.20;;;5.80;;
36243;SDS011;22284;49.956;19.816;2023-08-12T03:12:25;12.20;;;6.10;;
36243;SDS011;22284;49.956;19.816;2023-08-12T03:15:27;11.10;;;6.30;;
36243;SDS011;22284;49.956;19.816;2023-08-12T03:18:29;10.40;;;5.90;;
36243;SDS011;22284;49.956;19.816;2023-08-12T03:21:33;10.90;;;6.30;;
36243;SDS011;22284;49.956;19.816;2023-08-12T03:24:36;9.70;;;6.10;;
36243;SDS011;22284;49.956;19.816;2023-08-12T03:27:37;11.80;;;6.60;;
36243;SDS011;22284;49.956;19.816;2023-08-12T03:30:50;9.90;;;6.00;;
36243;SDS011;22284;49.956;19.816;2023-08-12T03:33:53;9.70;;;5.90;;
36243;SDS011;22284;49.956;19.816;2023-08-12T03:36:55;12.00;;;6.00;;
36243;SDS011;22284;49.956;19.816;2023-08-12T03:39:57;10.70;;;5.30;;
36243;SDS011;22284;49.956;19.816;2023-08-12T03:43:06;11.40;;;5.90;;
36243;SDS011;22284;49.956;19.816;2023-08-12T03:46:08;8.00;;;5.50;;
36243;SDS011;22284;49.956;19.816;2023-08-12T03:49:10;9.40;;;5.70;;
36243;SDS011;22284;49.956;19.816;2023-08-12T03:52:12;9.40;;;4.90;;
36243;SDS011;22284;49.956;19.816;2023-08-12T03:55:14;11.80;;;5.60;;
36243;SDS011;22284;49.956;19.816;2023-08-12T03:58:15;8.40;;;4.80;;
36243;SDS011;22284;49.956;19.816;2023-08-12T04:01:18;8.10;;;5.40;;
36243;SDS011;22284;49.956;19.816;2023-08-12T04:04:22;12.80;;;5.70;;
36243;SDS011;22284;49.956;19.816;2023-08-12T04:07:24;10.70;;;5.80;;
36243;SDS011;22284;49.956;19.816;2023-08-12T04:10:28;8.70;;;5.80;;
36243;SDS011;22284;49.956;19.816;2023-08-12T04:16:40;8.80;;;5.40;;
36243;SDS011;22284;49.956;19.816;2023-08-12T04:19:42;9.40;;;5.80;;
36243;SDS011;22284;49.956;19.816;2023-08-12T04:22:44;8.50;;;6.00;;
36243;SDS011;22284;49.956;19.816;2023-08-12T04:25:46;8.70;;;5.60;;
36243;SDS011;22284;49.956;19.816;2023-08-12T04:28:48;9.10;;;5.30;;
36243;SDS011;22284;49.956;19.816;2023-08-12T04:35:00;10.00;;;5.80;;
36243;SDS011;22284;49.956;19.816;2023-08-12T04:38:03;10.40;;;6.00;;
36243;SDS011;22284;49.956;19.816;2023-08-12T04:41:05;8.50;;;5.70;;
36243;SDS011;22284;49.956;19.816;2023-08-12T04:44:16;10.30;;;5.40;;
36243;SDS011;22284;49.956;19.816;2023-08-12T04:47:18;11.60;;;5.90;;
36243;SDS011;22284;49.956;19.816;2023-08-12T04:50:19;11.00;;;5.80;;
36243;SDS011;22284;49.956;19.816;2023-08-12T04:53:21;10.00;;;5.90;;
36243;SDS011;22284;49.956;19.816;2023-08-12T04:56:23;12.10;;;6.30;;
36243;SDS011;22284;49.956;19.816;2023-08-12T04:59:25;9.60;;;6.00;;
36243;SDS011;22284;49.956;19.816;2023-08-12T05:02:27;9.60;;;6.10;;
36243;SDS011;22284;49.956;19.816;2023-08-12T05:05:32;9.50;;;6.20;;
36243;SDS011;22284;49.956;19.816;2023-08-12T05:08:34;10.30;;;5.90;;
36243;SDS011;22284;49.956;19.816;2023-08-12T05:11:38;8.40;;;6.00;;
36243;SDS011;22284;49.956;19.816;2023-08-12T05:14:40;9.40;;;5.90;;
36243;SDS011;22284;49.956;19.816;2023-08-12T05:17:42;9.00;;;5.90;;
36243;SDS011;22284;49.956;19.816;2023-08-12T05:20:44;10.30;;;6.00;;
36243;SDS011;22284;49.956;19.816;2023-08-12T05:23:54;11.60;;;6.90;;
36243;SDS011;22284;49.956;19.816;2023-08-12T05:26:55;12.50;;;7.40;;
36243;SDS011;22284;49.956;19.816;2023-08-12T05:33:09;13.30;;;7.60;;
36243;SDS011;22284;49.956;19.816;2023-08-12T05:36:11;13.10;;;7.70;;
36243;SDS011;22284;49.956;19.816;2023-08-12T05:39:13;15.00;;;8.00;;
36243;SDS011;22284;49.956;19.816;2023-08-12T05:42:19;14.60;;;8.50;;
36243;SDS011;22284;49.956;19.816;2023-08-12T05:45:21;18.70;;;11.30;;
36243;SDS011;22284;49.956;19.816;2023-08-12T05:48:32;19.80;;;12.60;;
36243;SDS011;22284;49.956;19.816;2023-08-12T05:51:34;24.30;;;14.60;;
36243;SDS011;22284;49.956;19.816;2023-08-12T05:54:36;24.80;;;15.40;;
36243;SDS011;22284;49.956;19.816;2023-08-12T05:57:38;27.00;;;15.60;;
36243;SDS011;22284;49.956;19.816;2023-08-12T06:00:39;26.30;;;16.30;;
36243;SDS011;22284;49.956;19.816;2023-08-12T06:03:41;21.90;;;14.50;;
36243;SDS011;22284;49.956;19.816;2023-08-12T06:06:43;21.50;;;14.20;;
36243;SDS011;22284;49.956;19.816;2023-08-12T06:09:52;21.40;;;13.50;;
36243;SDS011;22284;49.956;19.816;2023-08-12T06:12:54;24.30;;;13.30;;
36243;SDS011;22284;49.956;19.816;2023-08-12T06:15:56;21.00;;;12.10;;
36243;SDS011;22284;49.956;19.816;2023-08-12T06:18:59;16.00;;;9.90;;
36243;SDS011;22284;49.956;19.816;2023-08-12T06:22:02;14.50;;;9.60;;
36243;SDS011;22284;49.956;19.816;2023-08-12T06:25:06;13.70;;;8.20;;
36243;SDS011;22284;49.956;19.816;2023-08-12T06:28:08;13.30;;;7.50;;
36243;SDS011;22284;49.956;19.816;2023-08-12T06:31:13;11.30;;;6.70;;
36243;SDS011;22284;49.956;19.816;2023-08-12T06:34:15;11.30;;;6.50;;
36243;SDS011;22284;49.956;19.816;2023-08-12T06:37:17;10.00;;;6.00;;
36243;SDS011;22284;49.956;19.816;2023-08-12T06:40:18;11.20;;;5.70;;
36243;SDS011;22284;49.956;19.816;2023-08-12T06:43:23;10.10;;;5.40;;
36243;SDS011;22284;49.956;19.816;2023-08-12T06:46:37;11.20;;;5.30;;
36243;SDS011;22284;49.956;19.816;2023-08-12T06:49:39;8.50;;;5.60;;
36243;SDS011;22284;49.956;19.816;2023-08-12T06:59:05;6.70;;;4.80;;
36243;SDS011;22284;49.956;19.816;2023-08-12T07:02:14;7.70;;;4.70;;
36243;SDS011;22284;49.956;19.816;2023-08-12T07:05:25;9.90;;;5.20;;
36243;SDS011;22284;49.956;19.816;2023-08-12T07:08:27;6.40;;;4.50;;
36243;SDS011;22284;49.956;19.816;2023-08-12T07:11:28;7.80;;;4.80;;
36243;SDS011;22284;49.956;19.816;2023-08-12T07:14:38;6.10;;;4.60;;
36243;SDS011;22284;49.956;19.816;2023-08-12T07:17:51;8.10;;;4.70;;
36243;SDS011;22284;49.956;19.816;2023-08-12T07:20:53;7.80;;;5.00;;
36243;SDS011;22284;49.956;19.816;2023-08-12T07:24:09;7.20;;;4.40;;
36243;SDS011;22284;49.956;19.816;2023-08-12T07:27:31;6.40;;;4.60;;
36243;SDS011;22284;49.956;19.816;2023-08-12T07:30:36;7.10;;;4.50;;
36243;SDS011;22284;49.956;19.816;2023-08-12T07:33:38;9.60;;;4.80;;
36243;SDS011;22284;49.956;19.816;2023-08-12T07:36:42;7.70;;;4.40;;
36243;SDS011;22284;49.956;19.816;2023-08-12T07:39:47;9.30;;;4.90;;
36243;SDS011;22284;49.956;19.816;2023-08-12T07:42:49;7.60;;;4.50;;
36243;SDS011;22284;49.956;19.816;2023-08-12T07:45:54;5.20;;;4.20;;
36243;SDS011;22284;49.956;19.816;2023-08-12T07:48:58;10.10;;;4.80;;
36243;SDS011;22284;49.956;19.816;2023-08-12T07:52:00;6.60;;;4.40;;
36243;SDS011;22284;49.956;19.816;2023-08-12T07:55:05;7.30;;;4.30;;
36243;SDS011;22284;49.956;19.816;2023-08-12T07:58:07;11.40;;;6.70;;
36243;SDS011;22284;49.956;19.816;2023-08-12T08:01:09;10.70;;;5.90;;
36243;SDS011;22284;49.956;19.816;2023-08-12T08:04:11;8.50;;;4.80;;
36243;SDS011;22284;49.956;19.816;2023-08-12T08:07:13;7.80;;;4.60;;
36243;SDS011;22284;49.956;19.816;2023-08-12T08:10:15;8.30;;;4.90;;
36243;SDS011;22284;49.956;19.816;2023-08-12T08:13:17;6.90;;;4.30;;
36243;SDS011;22284;49.956;19.816;2023-08-12T08:16:19;7.60;;;4.30;;
36243;SDS011;22284;49.956;19.816;2023-08-12T08:19:20;7.70;;;4.20;;
36243;SDS011;22284;49.956;19.816;2023-08-12T08:22:22;9.90;;;4.60;;
36243;SDS011;22284;49.956;19.816;2023-08-12T08:25:24;11.30;;;5.00;;
36243;SDS011;22284;49.956;19.816;2023-08-12T08:28:34;7.70;;;4.20;;
36243;SDS011;22284;49.956;19.816;2023-08-12T08:31:36;8.00;;;4.40;;
36243;SDS011;22284;49.956;19.816;2023-08-12T08:41:29;6.00;;;3.90;;
36243;SDS011;22284;49.956;19.816;2023-08-12T08:44:41;6.80;;;3.90;;
36243;SDS011;22284;49.956;19.816;2023-08-12T08:47:43;7.10;;;4.00;;
36243;SDS011;22284;49.956;19.816;2023-08-12T08:50:59;7.70;;;3.80;;
36243;SDS011;22284;49.956;19.816;2023-08-12T08:54:04;7.30;;;3.60;;
36243;SDS011;22284;49.956;19.816;2023-08-12T08:57:19;6.50;;;3.70;;
36243;SDS011;22284;49.956;19.816;2023-08-12T09:03:35;5.40;;;3.50;;
36243;SDS011;22284;49.956;19.816;2023-08-12T09:06:38;7.10;;;3.70;;
36243;SDS011;22284;49.956;19.816;2023-08-12T09:12:43;8.70;;;3.80;;
36243;SDS011;22284;49.956;19.816;2023-08-12T09:15:49;7.40;;;3.70;;
36243;SDS011;22284;49.956;19.816;2023-08-12T09:18:57;5.00;;;3.40;;
36243;SDS011;22284;49.956;19.816;2023-08-12T09:21:59;4.20;;;2.80;;
36243;SDS011;22284;49.956;19.816;2023-08-12T09:25:04;4.30;;;3.50;;
36243;SDS011;22284;49.956;19.816;2023-08-12T09:28:07;5.50;;;3.20;;
36243;SDS011;22284;49.956;19.816;2023-08-12T09:35:00;3.20;;;2.70;;
36243;SDS011;22284;49.956;19.816;2023-08-12T09:38:05;4.70;;;3.00;;
36243;SDS011;22284;49.956;19.816;2023-08-12T09:41:08;4.00;;;2.50;;
36243;SDS011;22284;49.956;19.816;2023-08-12T09:44:11;4.10;;;2.90;;
36243;SDS011;22284;49.956;19.816;2023-08-12T09:47:13;3.60;;;2.80;;
36243;SDS011;22284;49.956;19.816;2023-08-12T09:50:15;20.20;;;3.90;;
36243;SDS011;22284;49.956;19.816;2023-08-12T09:53:17;5.00;;;3.00;;
36243;SDS011;22284;49.956;19.816;2023-08-12T09:56:22;4.90;;;2.70;;
36243;SDS011;22284;49.956;19.816;2023-08-12T09:59:24;3.60;;;2.70;;
36243;SDS011;22284;49.956;19.816;2023-08-12T10:02:30;5.20;;;2.40;;
36243;SDS011;22284;49.956;19.816;2023-08-12T10:05:32;4.30;;;2.80;;
36243;SDS011;22284;49.956;19.816;2023-08-12T10:08:35;5.10;;;2.90;;
36243;SDS011;22284;49.956;19.816;2023-08-12T10:11:47;6.40;;;3.00;;
36243;SDS011;22284;49.956;19.816;2023-08-12T10:14:49;5.90;;;3.00;;
36243;SDS011;22284;49.956;19.816;2023-08-12T10:17:55;6.10;;;2.90;;
36243;SDS011;22284;49.956;19.816;2023-08-12T10:21:00;4.00;;;3.00;;
36243;SDS011;22284;49.956;19.816;2023-08-12T10:24:05;6.40;;;3.20;;
36243;SDS011;22284;49.956;19.816;2023-08-12T10:30:17;5.70;;;3.20;;
36243;SDS011;22284;49.956;19.816;2023-08-12T10:33:28;5.30;;;2.60;;
36243;SDS011;22284;49.956;19.816;2023-08-12T10:39:59;5.20;;;3.00;;
36243;SDS011;22284;49.956;19.816;2023-08-12T10:43:08;4.90;;;3.00;;
36243;SDS011;22284;49.956;19.816;2023-08-12T10:46:20;7.10;;;2.90;;
36243;SDS011;22284;49.956;19.816;2023-08-12T10:49:23;4.30;;;3.10;;
36243;SDS011;22284;49.956;19.816;2023-08-12T10:52:28;4.70;;;3.00;;
36243;SDS011;22284;49.956;19.816;2023-08-12T10:55:31;3.90;;;3.00;;
36243;SDS011;22284;49.956;19.816;2023-08-12T10:58:44;4.10;;;2.90;;
36243;SDS011;22284;49.956;19.816;2023-08-12T11:01:47;6.10;;;3.20;;
36243;SDS011;22284;49.956;19.816;2023-08-12T11:04:55;7.60;;;2.80;;
36243;SDS011;22284;49.956;19.816;2023-08-12T11:08:02;7.00;;;3.20;;
36243;SDS011;22284;49.956;19.816;2023-08-12T11:11:18;4.00;;;2.80;;
36243;SDS011;22284;49.956;19.816;2023-08-12T11:14:24;5.60;;;2.70;;
36243;SDS011;22284;49.956;19.816;2023-08-12T11:17:35;4.20;;;2.90;;
36243;SDS011;22284;49.956;19.816;2023-08-12T11:20:38;6.30;;;2.70;;
36243;SDS011;22284;49.956;19.816;2023-08-12T11:23:43;5.60;;;3.10;;
36243;SDS011;22284;49.956;19.816;2023-08-12T11:26:56;4.60;;;2.80;;
36243;SDS011;22284;49.956;19.816;2023-08-12T11:36:43;3.50;;;2.50;;
36243;SDS011;22284;49.956;19.816;2023-08-12T11:43:21;6.60;;;2.70;;
36243;SDS011;22284;49.956;19.816;2023-08-12T11:50:47;4.80;;;3.00;;
36243;SDS011;22284;49.956;19.816;2023-08-12T11:54:10;4.50;;;2.90;;
36243;SDS011;22284;49.956;19.816;2023-08-12T12:01:48;2.50;;;2.20;;
36243;SDS011;22284;49.956;19.816;2023-08-12T12:05:31;4.30;;;2.50;;
36243;SDS011;22284;49.956;19.816;2023-08-12T12:08:52;4.30;;;3.00;;
36243;SDS011;22284;49.956;19.816;2023-08-12T12:16:14;4.50;;;3.00;;
36243;SDS011;22284;49.956;19.816;2023-08-12T12:19:23;3.80;;;2.30;;
36243;SDS011;22284;49.956;19.816;2023-08-12T12:22:49;4.30;;;2.60;;
36243;SDS011;22284;49.956;19.816;2023-08-12T12:29:16;4.30;;;2.40;;
36243;SDS011;22284;49.956;19.816;2023-08-12T12:32:26;4.50;;;2.60;;
36243;SDS011;22284;49.956;19.816;2023-08-12T12:35:36;3.80;;;2.70;;
36243;SDS011;22284;49.956;19.816;2023-08-12T12:38:51;3.60;;;2.70;;
36243;SDS011;22284;49.956;19.816;2023-08-12T12:42:07;4.70;;;2.60;;
36243;SDS011;22284;49.956;19.816;2023-08-12T12:45:14;3.30;;;2.40;;
36243;SDS011;22284;49.956;19.816;2023-08-12T12:48:19;6.70;;;3.10;;
36243;SDS011;22284;49.956;19.816;2023-08-12T12:51:28;4.70;;;2.80;;
36243;SDS011;22284;49.956;19.816;2023-08-12T12:54:35;5.20;;;2.60;;
36243;SDS011;22284;49.956;19.816;2023-08-12T12:57:42;2.90;;;2.60;;
36243;SDS011;22284;49.956;19.816;2023-08-12T13:00:46;7.00;;;2.70;;
36243;SDS011;22284;49.956;19.816;2023-08-12T13:03:53;4.00;;;2.80;;
36243;SDS011;22284;49.956;19.816;2023-08-12T13:10:21;3.70;;;2.70;;
36243;SDS011;22284;49.956;19.816;2023-08-12T13:13:25;4.10;;;2.80;;
36243;SDS011;22284;49.956;19.816;2023-08-12T13:16:45;6.00;;;2.90;;
36243;SDS011;22284;49.956;19.816;2023-08-12T13:20:16;5.60;;;3.00;;
36243;SDS011;22284;49.956;19.816;2023-08-12T13:23:22;3.20;;;2.90;;
36243;SDS011;22284;49.956;19.816;2023-08-12T13:26:32;5.20;;;2.60;;
36243;SDS011;22284;49.956;19.816;2023-08-12T13:29:47;4.80;;;2.80;;
36243;SDS011;22284;49.956;19.816;2023-08-12T13:32:57;4.40;;;2.90;;
36243;SDS011;22284;49.956;19.816;2023-08-12T13:36:03;4.90;;;2.70;;
36243;SDS011;22284;49.956;19.816;2023-08-12T13:46:01;5.10;;;2.70;;
36243;SDS011;22284;49.956;19.816;2023-08-12T13:49:09;4.30;;;2.40;;
36243;SDS011;22284;49.956;19.816;2023-08-12T13:52:25;4.60;;;2.70;;
36243;SDS011;22284;49.956;19.816;2023-08-12T13:55:27;6.40;;;2.90;;
36243;SDS011;22284;49.956;19.816;2023-08-12T13:58:32;4.00;;;2.60;;
36243;SDS011;22284;49.956;19.816;2023-08-12T14:01:36;3.70;;;2.50;;
36243;SDS011;22284;49.956;19.816;2023-08-12T14:04:38;5.80;;;2.70;;
36243;SDS011;22284;49.956;19.816;2023-08-12T14:07:41;4.90;;;2.90;;
36243;SDS011;22284;49.956;19.816;2023-08-12T14:10:51;3.80;;;2.40;;
36243;SDS011;22284;49.956;19.816;2023-08-12T14:13:56;3.90;;;2.20;;
36243;SDS011;22284;49.956;19.816;2023-08-12T14:17:07;4.30;;;2.40;;
36243;SDS011;22284;49.956;19.816;2023-08-12T14:20:09;5.00;;;2.60;;
36243;SDS011;22284;49.956;19.816;2023-08-12T14:23:24;2.90;;;2.40;;
36243;SDS011;22284;49.956;19.816;2023-08-12T14:26:26;4.50;;;2.70;;
36243;SDS011;22284;49.956;19.816;2023-08-12T14:29:35;6.00;;;2.40;;
36243;SDS011;22284;49.956;19.816;2023-08-12T14:32:43;4.70;;;2.90;;
36243;SDS011;22284;49.956;19.816;2023-08-12T14:36:08;4.50;;;2.40;;
36243;SDS011;22284;49.956;19.816;2023-08-12T14:39:13;7.50;;;2.70;;
36243;SDS011;22284;49.956;19.816;2023-08-12T14:42:47;2.30;;;1.80;;
36243;SDS011;22284;49.956;19.816;2023-08-12T14:45:51;4.30;;;2.10;;
36243;SDS011;22284;49.956;19.816;2023-08-12T14:52:30;2.40;;;2.20;;
36243;SDS011;22284;49.956;19.816;2023-08-12T14:55:57;6.60;;;2.40;;
36243;SDS011;22284;49.956;19.816;2023-08-12T14:59:11;4.00;;;2.30;;
36243;SDS011;22284;49.956;19.816;2023-08-12T15:02:31;3.20;;;2.50;;
36243;SDS011;22284;49.956;19.816;2023-08-12T15:05:47;3.90;;;2.90;;
36243;SDS011;22284;49.956;19.816;2023-08-12T15:09:11;3.00;;;2.30;;
36243;SDS011;22284;49.956;19.816;2023-08-12T15:12:22;3.60;;;2.40;;
36243;SDS011;22284;49.956;19.816;2023-08-12T15:15:46;3.50;;;2.60;;
36243;SDS011;22284;49.956;19.816;2023-08-12T15:18:48;4.90;;;2.90;;
36243;SDS011;22284;49.956;19.816;2023-08-12T15:21:49;4.00;;;2.60;;
36243;SDS011;22284;49.956;19.816;2023-08-12T15:24:52;3.80;;;2.40;;
36243;SDS011;22284;49.956;19.816;2023-08-12T15:27:54;3.30;;;2.30;;
36243;SDS011;22284;49.956;19.816;2023-08-12T15:30:56;3.90;;;2.40;;
36243;SDS011;22284;49.956;19.816;2023-08-12T15:33:58;3.60;;;2.80;;
36243;SDS011;22284;49.956;19.816;2023-08-12T15:36:59;4.00;;;2.40;;
36243;SDS011;22284;49.956;19.816;2023-08-12T15:40:01;7.40;;;2.40;;
36243;SDS011;22284;49.956;19.816;2023-08-12T15:43:03;4.60;;;2.10;;
36243;SDS011;22284;49.956;19.816;2023-08-12T15:46:08;4.70;;;2.50;;
36243;SDS011;22284;49.956;19.816;2023-08-12T15:49:26;3.50;;;2.40;;
36243;SDS011;22284;49.956;19.816;2023-08-12T15:52:38;3.00;;;2.40;;
36243;SDS011;22284;49.956;19.816;2023-08-12T15:59:26;5.70;;;2.50;;
36243;SDS011;22284;49.956;19.816;2023-08-12T16:02:27;3.60;;;2.40;;
36243;SDS011;22284;49.956;19.816;2023-08-12T16:05:37;5.00;;;2.60;;
36243;SDS011;22284;49.956;19.816;2023-08-12T16:08:48;7.50;;;2.90;;
36243;SDS011;22284;49.956;19.816;2023-08-12T16:11:49;3.20;;;2.40;;
36243;SDS011;22284;49.956;19.816;2023-08-12T16:14:51;3.20;;;2.20;;
36243;SDS011;22284;49.956;19.816;2023-08-12T16:17:53;3.40;;;2.60;;
36243;SDS011;22284;49.956;19.816;2023-08-12T16:20:54;3.30;;;2.40;;
36243;SDS011;22284;49.956;19.816;2023-08-12T16:23:56;6.70;;;2.30;;
36243;SDS011;22284;49.956;19.816;2023-08-12T16:26:58;6.00;;;2.50;;
36243;SDS011;22284;49.956;19.816;2023-08-12T16:30:01;4.40;;;2.40;;
36243;SDS011;22284;49.956;19.816;2023-08-12T16:33:03;5.60;;;2.30;;
36243;SDS011;22284;49.956;19.816;2023-08-12T16:36:05;5.90;;;2.40;;
36243;SDS011;22284;49.956;19.816;2023-08-12T16:39:07;3.10;;;2.20;;
36243;SDS011;22284;49.956;19.816;2023-08-12T16:42:11;3.60;;;2.80;;
36243;SDS011;22284;49.956;19.816;2023-08-12T16:45:13;4.50;;;2.60;;
36243;SDS011;22284;49.956;19.816;2023-08-12T16:48:14;5.50;;;2.50;;
36243;SDS011;22284;49.956;19.816;2023-08-12T16:51:16;5.80;;;2.50;;
36243;SDS011;22284;49.956;19.816;2023-08-12T16:57:44;5.10;;;2.80;;
36243;SDS011;22284;49.956;19.816;2023-08-12T17:00:53;6.10;;;3.20;;
36243;SDS011;22284;49.956;19.816;2023-08-12T17:03:55;8.20;;;2.60;;
36243;SDS011;22284;49.956;19.816;2023-08-12T17:06:57;6.70;;;3.00;;
36243;SDS011;22284;49.956;19.816;2023-08-12T17:10:02;5.70;;;2.90;;
36243;SDS011;22284;49.956;19.816;2023-08-12T17:13:04;11.80;;;6.80;;
36243;SDS011;22284;49.956;19.816;2023-08-12T17:16:21;6.40;;;3.40;;
36243;SDS011;22284;49.956;19.816;2023-08-12T17:19:32;7.30;;;2.70;;
36243;SDS011;22284;49.956;19.816;2023-08-12T17:22:44;6.60;;;3.20;;
36243;SDS011;22284;49.956;19.816;2023-08-12T17:25:49;8.80;;;3.30;;
36243;SDS011;22284;49.956;19.816;2023-08-12T17:28:50;8.40;;;2.90;;
36243;SDS011;22284;49.956;19.816;2023-08-12T17:31:52;7.30;;;3.40;;
36243;SDS011;22284;49.956;19.816;2023-08-12T17:34:54;5.60;;;4.40;;
36243;SDS011;22284;49.956;19.816;2023-08-12T17:37:56;4.30;;;2.90;;
36243;SDS011;22284;49.956;19.816;2023-08-12T17:40:57;5.30;;;3.10;;
36243;SDS011;22284;49.956;19.816;2023-08-12T17:43:59;7.60;;;2.60;;
36243;SDS011;22284;49.956;19.816;2023-08-12T17:47:01;5.90;;;4.60;;
36243;SDS011;22284;49.956;19.816;2023-08-12T17:50:03;6.10;;;4.20;;
36243;SDS011;22284;49.956;19.816;2023-08-12T17:53:06;14.40;;;7.10;;
36243;SDS011;22284;49.956;19.816;2023-08-12T17:56:08;5.70;;;3.60;;
36243;SDS011;22284;49.956;19.816;2023-08-12T17:59:11;6.40;;;3.20;;
36243;SDS011;22284;49.956;19.816;2023-08-12T18:02:12;5.50;;;3.20;;
36243;SDS011;22284;49.956;19.816;2023-08-12T18:05:14;6.10;;;3.50;;
36243;SDS011;22284;49.956;19.816;2023-08-12T18:08:16;9.10;;;5.90;;
36243;SDS011;22284;49.956;19.816;2023-08-12T18:11:19;17.80;;;11.10;;
36243;SDS011;22284;49.956;19.816;2023-08-12T18:17:23;7.20;;;4.10;;
36243;SDS011;22284;49.956;19.816;2023-08-12T18:20:25;8.60;;;4.80;;
36243;SDS011;22284;49.956;19.816;2023-08-12T18:23:27;8.80;;;5.40;;
36243;SDS011;22284;49.956;19.816;2023-08-12T18:26:30;9.80;;;5.10;;
36243;SDS011;22284;49.956;19.816;2023-08-12T18:29:32;7.60;;;5.10;;
36243;SDS011;22284;49.956;19.816;2023-08-12T18:32:37;10.20;;;5.50;;
36243;SDS011;22284;49.956;19.816;2023-08-12T18:36:01;9.90;;;4.80;;
36243;SDS011;22284;49.956;19.816;2023-08-12T18:39:16;9.80;;;4.70;;
36243;SDS011;22284;49.956;19.816;2023-08-12T18:42:26;8.10;;;4.50;;
36243;SDS011;22284;49.956;19.816;2023-08-12T18:45:37;8.60;;;4.80;;
36243;SDS011;22284;49.956;19.816;2023-08-12T18:48:41;11.70;;;5.00;;
36243;SDS011;22284;49.956;19.816;2023-08-12T18:54:58;13.30;;;6.60;;
36243;SDS011;22284;49.956;19.816;2023-08-12T18:58:00;13.60;;;6.60;;
36243;SDS011;22284;49.956;19.816;2023-08-12T19:01:02;14.00;;;6.30;;
36243;SDS011;22284;49.956;19.816;2023-08-12T19:04:06;11.90;;;6.10;;
36243;SDS011;22284;49.956;19.816;2023-08-12T19:07:08;12.60;;;6.60;;
36243;SDS011;22284;49.956;19.816;2023-08-12T19:10:18;11.60;;;6.40;;
36243;SDS011;22284;49.956;19.816;2023-08-12T19:13:20;9.40;;;5.90;;
36243;SDS011;22284;49.956;19.816;2023-08-12T19:16:22;12.80;;;6.80;;
36243;SDS011;22284;49.956;19.816;2023-08-12T19:19:24;12.40;;;6.30;;
36243;SDS011;22284;49.956;19.816;2023-08-12T19:22:26;12.40;;;6.70;;
36243;SDS011;22284;49.956;19.816;2023-08-12T19:25:27;12.70;;;7.10;;
36243;SDS011;22284;49.956;19.816;2023-08-12T19:28:38;12.70;;;7.20;;
36243;SDS011;22284;49.956;19.816;2023-08-12T19:31:48;12.40;;;6.80;;
36243;SDS011;22284;49.956;19.816;2023-08-12T19:34:50;13.30;;;6.90;;
36243;SDS011;22284;49.956;19.816;2023-08-12T19:37:53;16.70;;;7.40;;
36243;SDS011;22284;49.956;19.816;2023-08-12T19:40:56;12.70;;;7.70;;
36243;SDS011;22284;49.956;19.816;2023-08-12T19:44:06;14.50;;;7.80;;
36243;SDS011;22284;49.956;19.816;2023-08-12T19:47:10;13.80;;;8.00;;